Time;durP1;ratioP1;P1;durP2;ratioP2;P2;SDS_P1;SDS_P2;PMS_P1;PMS_P2;Temp;Humidity;BMP_temperature;BMP_pressure;BME280_temperature;BME280_humidity;BME280_pressure;Samples;Min_cycle;Max_cycle;Signal;HPM_P1;HPM_P2
2022/06/27 00:01:24;;;;;;;16.45;6.72;;;;;;;-144.47;45.10;53009.03;5056098;28;20506;-67
2022/06/27 00:03:49;;;;;;;12.65;6.80;;;;;;;-144.47;45.26;53042.78;5049678;28;20442;-68
2022/06/27 00:06:19;;;;;;;12.27;5.95;;;;;;;-144.47;45.43;53034.84;5051551;28;20031;-68
2022/06/27 00:08:45;;;;;;;14.77;6.93;;;;;;;-144.47;45.53;53013.00;5053954;28;20024;-66
2022/06/27 00:11:10;;;;;;;10.23;6.55;;;;;;;-144.47;45.56;53044.78;5052235;28;20457;-66
2022/06/27 00:13:36;;;;;;;10.70;6.82;;;;;;;-144.47;45.89;53046.75;5050093;28;20029;-69
2022/06/27 00:16:01;;;;;;;12.07;6.85;;;;;;;-144.47;46.17;53024.91;5042131;28;20029;-67
2022/06/27 00:18:26;;;;;;;9.85;7.00;;;;;;;-144.47;46.22;53036.84;5051302;28;20079;-68
2022/06/27 00:20:53;;;;;;;9.15;6.35;;;;;;;-144.47;46.31;53007.03;5052414;28;20394;-65
2022/06/27 00:23:19;;;;;;;10.52;6.63;;;;;;;-144.47;46.30;53040.81;5051794;28;20076;-67
2022/06/27 00:25:44;;;;;;;15.25;6.93;;;;;;;-144.47;46.45;53058.69;5054207;28;20542;-67
2022/06/27 00:28:09;;;;;;;11.48;7.03;;;;;;;-144.47;46.77;53038.81;5047794;28;20067;-66
2022/06/27 00:30:35;;;;;;;13.68;6.88;;;;;;;-144.47;46.61;53056.69;5057610;28;20028;-66
2022/06/27 00:33:00;;;;;;;8.25;6.35;;;;;;;-144.47;46.60;53054.72;5055398;28;20062;-66
2022/06/27 00:35:25;;;;;;;10.93;7.30;;;;;;;-144.47;46.91;53034.84;5061700;28;20021;-65
2022/06/27 00:37:51;;;;;;;28.48;8.98;;;;;;;-144.47;47.17;53054.72;5052208;28;20658;-68
2022/06/27 00:40:16;;;;;;;13.68;6.65;;;;;;;-144.47;47.06;53072.59;5041647;28;20071;-66
2022/06/27 00:42:42;;;;;;;11.90;7.32;;;;;;;-144.47;47.37;53032.88;5051215;28;20375;-68
2022/06/27 00:45:08;;;;;;;12.90;7.45;;;;;;;-144.47;47.27;53062.66;5044358;28;20669;-68
2022/06/27 00:47:33;;;;;;;10.40;7.38;;;;;;;-144.47;47.44;53090.47;5045142;28;20031;-66
2022/06/27 00:49:59;;;;;;;12.15;7.47;;;;;;;-144.47;47.40;53092.44;5052167;28;20195;-66
2022/06/27 00:52:26;;;;;;;11.20;6.88;;;;;;;-144.47;47.64;53058.69;5048312;28;20021;-66
2022/06/27 00:54:51;;;;;;;10.38;7.30;;;;;;;-144.47;47.72;53034.84;5048967;28;20037;-67
2022/06/27 00:57:17;;;;;;;9.77;6.90;;;;;;;-144.47;47.96;53036.84;5048338;28;20383;-67
2022/06/27 00:59:43;;;;;;;11.43;7.00;;;;;;;-144.47;48.22;53052.72;5049427;28;20029;-66
2022/06/27 01:02:09;;;;;;;14.18;8.27;;;;;;;-144.47;48.39;53054.72;5051215;28;20090;-67
2022/06/27 01:04:36;;;;;;;16.65;8.82;;;;;;;-144.47;48.54;53072.59;5048746;28;20498;-68
2022/06/27 01:07:04;;;;;;;11.75;7.65;;;;;;;-144.47;48.64;53044.78;5047440;28;20030;-67
2022/06/27 01:09:29;;;;;;;14.85;7.53;;;;;;;-144.47;48.86;53036.84;5046797;28;20559;-68
2022/06/27 01:11:55;;;;;;;11.85;7.53;;;;;;;-144.47;48.78;53042.78;5049197;28;20025;-69
2022/06/27 01:14:20;;;;;;;11.05;7.72;;;;;;;-144.47;48.93;53076.56;5041096;28;20041;-70
2022/06/27 01:16:46;;;;;;;15.80;7.82;;;;;;;-144.47;49.03;53070.59;5047977;28;20035;-67
2022/06/27 01:19:14;;;;;;;10.90;7.07;;;;;;;-144.47;49.19;53108.34;5051103;28;20150;-68
2022/06/27 01:21:45;;;;;;;11.13;6.80;;;;;;;-144.47;49.12;53066.63;5049917;28;20531;-68
2022/06/27 01:24:11;;;;;;;11.65;7.55;;;;;;;-144.47;49.34;53068.63;5048744;28;20033;-67
2022/06/27 01:26:36;;;;;;;14.48;8.18;;;;;;;-144.47;49.34;53070.59;5048735;28;20028;-68
2022/06/27 01:29:03;;;;;;;10.93;7.43;;;;;;;-144.47;49.28;53066.63;5047261;28;20115;-66
2022/06/27 01:31:30;;;;;;;11.52;7.28;;;;;;;-144.47;49.31;53086.50;5047983;28;20528;-67
2022/06/27 01:33:55;;;;;;;12.50;7.97;;;;;;;-144.47;49.30;53102.38;5047423;28;20471;-67
2022/06/27 01:39:05;;;;;;;10.52;6.80;;;;;;;-144.47;49.62;53076.56;5047719;28;20081;-69
2022/06/27 01:41:30;;;;;;;11.60;7.57;;;;;;;-144.47;49.88;53066.63;5050872;28;20024;-66
2022/06/27 01:43:56;;;;;;;14.05;7.70;;;;;;;-144.47;49.95;53082.53;5046949;28;20090;-64
2022/06/27 01:46:21;;;;;;;14.48;8.00;;;;;;;-144.47;50.08;53078.53;5047381;28;20056;-64
2022/06/27 01:48:49;;;;;;;11.30;8.10;;;;;;;-144.47;50.26;53044.78;5048151;28;20494;-67
2022/06/27 01:51:15;;;;;;;15.32;7.97;;;;;;;-144.47;50.43;53078.53;5048151;28;20253;-68
2022/06/27 01:53:41;;;;;;;11.95;7.78;;;;;;;-144.47;50.55;53046.75;5051201;28;20036;-66
2022/06/27 01:56:07;;;;;;;11.65;7.85;;;;;;;-144.47;50.52;53054.72;5054624;28;20067;-65
2022/06/27 01:58:33;;;;;;;13.57;8.95;;;;;;;-144.47;50.60;53072.59;5049236;28;20117;-66
2022/06/27 02:00:59;;;;;;;15.52;8.25;;;;;;;-144.47;50.80;53056.69;5052337;28;20497;-69
2022/06/27 02:03:25;;;;;;;14.80;8.20;;;;;;;-144.47;50.93;53104.38;5046308;28;20057;-68
2022/06/27 02:05:53;;;;;;;14.95;8.57;;;;;;;-144.47;51.05;53094.44;5040391;28;20025;-68
2022/06/27 02:08:21;;;;;;;12.80;8.80;;;;;;;-144.47;51.27;53078.53;5040602;28;20412;-67
2022/06/27 02:10:46;;;;;;;13.48;9.02;;;;;;;-144.47;51.32;53086.50;5051127;28;20025;-67
2022/06/27 02:13:13;;;;;;;19.70;8.38;;;;;;;-144.47;51.17;53078.53;5046512;28;20498;-66
2022/06/27 02:16:17;;;;;;;14.68;8.52;;;;;;;-144.47;51.28;53114.31;5040535;28;20560;-67
2022/06/27 02:18:43;;;;;;;19.70;8.57;;;;;;;-144.47;51.40;53074.56;5040923;28;20055;-69
2022/06/27 02:21:13;;;;;;;14.90;8.88;;;;;;;-144.47;51.59;53118.28;5041282;28;20032;-68
2022/06/27 02:23:39;;;;;;;14.70;9.07;;;;;;;-144.47;51.49;53100.41;5049686;28;20433;-68
2022/06/27 02:26:09;;;;;;;12.80;8.98;;;;;;;-144.47;51.66;53054.72;5049150;28;20036;-67
2022/06/27 02:28:36;;;;;;;15.32;8.60;;;;;;;-144.47;51.65;53090.47;5050033;28;20054;-67
2022/06/27 02:31:02;;;;;;;16.42;9.00;;;;;;;-144.47;51.86;53082.53;5047824;28;20032;-69
2022/06/27 02:33:38;;;;;;;13.85;8.45;;;;;;;-144.47;51.84;53084.50;5043264;28;20038;-69
2022/06/27 02:36:06;;;;;;;11.52;7.82;;;;;;;-144.47;51.92;53106.34;5043211;28;20039;-66
2022/06/27 02:38:32;;;;;;;19.00;9.02;;;;;;;-144.47;51.89;53098.41;5044145;28;20553;-69
2022/06/27 02:41:00;;;;;;;13.25;9.02;;;;;;;-144.47;52.09;53102.38;5052115;28;20425;-68
2022/06/27 02:43:28;;;;;;;15.70;8.82;;;;;;;-144.47;52.09;53062.66;5052325;28;20025;-68
2022/06/27 02:45:55;;;;;;;15.90;9.13;;;;;;;-144.47;52.17;53048.75;5051724;28;20116;-66
2022/06/27 02:48:23;;;;;;;22.05;9.43;;;;;;;-144.47;52.09;53088.47;5053084;28;20039;-66
2022/06/27 02:50:55;;;;;;;14.77;9.38;;;;;;;-144.47;52.20;53086.50;5051233;28;20116;-67
2022/06/27 02:53:27;;;;;;;28.88;9.90;;;;;;;-144.47;52.34;53090.47;5048073;28;20029;-67
2022/06/27 02:55:55;;;;;;;21.23;8.65;;;;;;;-144.47;52.47;53090.47;5053091;28;20021;-66
2022/06/27 02:58:53;;;;;;;14.23;9.15;;;;;;;-144.47;52.44;53074.56;5050835;28;20558;-67
2022/06/27 03:01:20;;;;;;;17.67;9.10;;;;;;;-144.47;52.56;53114.31;5053817;28;20064;-67
2022/06/27 03:03:48;;;;;;;16.60;9.90;;;;;;;-144.47;52.53;53116.28;5051119;28;20139;-68
2022/06/27 03:06:14;;;;;;;19.50;9.60;;;;;;;-144.47;52.55;53116.28;5046016;28;20036;-68
2022/06/27 03:08:42;;;;;;;14.85;9.40;;;;;;;-144.47;52.75;53092.44;5050644;28;20029;-67
2022/06/27 03:11:10;;;;;;;12.98;8.73;;;;;;;-144.47;52.79;53116.28;5051356;28;20017;-64
2022/06/27 03:13:36;;;;;;;25.75;12.80;;;;;;;-144.47;52.72;53082.53;5051289;28;20041;-68
2022/06/27 03:16:02;;;;;;;45.63;21.55;;;;;;;-144.47;52.66;53078.53;5050546;28;20473;-65
2022/06/27 03:18:27;;;;;;;22.95;13.73;;;;;;;-144.47;52.54;53110.31;5053244;28;20029;-66
2022/06/27 03:20:53;;;;;;;20.15;10.10;;;;;;;-144.47;52.55;53088.47;5050449;28;20025;-68
2022/06/27 03:23:20;;;;;;;19.20;10.13;;;;;;;-144.47;52.66;53068.63;5051549;28;20100;-68
2022/06/27 03:25:46;;;;;;;23.08;11.27;;;;;;;-144.47;52.77;53094.44;5051000;28;20416;-68
2022/06/27 03:28:12;;;;;;;17.40;9.98;;;;;;;-144.47;52.71;53054.72;5035119;28;20021;-66
2022/06/27 03:30:38;;;;;;;18.88;9.43;;;;;;;-144.47;52.78;53106.34;5047234;28;20027;-67
2022/06/27 03:33:03;;;;;;;14.98;9.35;;;;;;;-144.47;52.95;53098.41;5047151;28;20183;-67
2022/06/27 03:35:29;;;;;;;18.55;9.38;;;;;;;-144.47;53.11;53082.53;5053471;28;20417;-68
2022/06/27 03:37:54;;;;;;;23.70;11.27;;;;;;;-144.47;53.12;53088.47;5051230;28;20025;-67
2022/06/27 03:40:20;;;;;;;15.75;9.50;;;;;;;-144.47;53.21;53096.41;5055538;28;20032;-68
2022/06/27 03:42:45;;;;;;;24.13;10.00;;;;;;;-144.47;53.08;53154.03;5050253;28;20032;-66
2022/06/27 03:45:11;;;;;;;16.20;10.10;;;;;;;-144.47;53.31;53114.31;5048492;28;20032;-67
2022/06/27 03:47:57;;;;;;;18.55;10.30;;;;;;;-144.47;53.29;53094.44;5050184;28;20025;-68
2022/06/27 03:50:24;;;;;;;18.83;10.13;;;;;;;-144.47;53.47;53084.50;5047406;28;20033;-66
2022/06/27 03:52:51;;;;;;;21.98;10.35;;;;;;;-144.47;53.36;53088.47;5051951;28;20040;-67
2022/06/27 03:55:17;;;;;;;16.02;10.13;;;;;;;-144.47;53.44;53114.31;5053164;28;20029;-68
2022/06/27 03:57:57;;;;;;;18.83;10.77;;;;;;;-144.47;53.47;53122.25;5052753;28;20039;-67
2022/06/27 04:00:25;;;;;;;22.17;11.43;;;;;;;-144.47;53.41;53132.19;5046701;28;20032;-67
2022/06/27 04:02:52;;;;;;;18.67;11.75;;;;;;;-144.47;53.43;53088.47;5068334;22;20117;-65
2022/06/27 04:05:18;;;;;;;17.95;10.40;;;;;;;-144.47;53.40;53078.53;5067202;28;20405;-70
2022/06/27 04:07:43;;;;;;;22.00;10.90;;;;;;;-144.47;53.28;53122.25;5067624;28;20040;-69
2022/06/27 04:10:11;;;;;;;21.35;11.02;;;;;;;-144.47;53.18;53080.53;5067832;28;20104;-70
2022/06/27 04:12:37;;;;;;;17.00;11.02;;;;;;;-144.47;53.14;53116.28;5061873;28;20508;-69
2022/06/27 04:15:06;;;;;;;14.20;10.52;;;;;;;-144.47;53.04;53128.22;5053958;28;20156;-66
2022/06/27 04:17:32;;;;;;;19.23;11.13;;;;;;;-144.47;53.10;53124.22;5061525;28;20090;-67
2022/06/27 04:19:58;;;;;;;15.38;11.00;;;;;;;-144.47;53.04;53096.41;5066586;28;20450;-67
2022/06/27 04:22:23;;;;;;;15.05;10.45;;;;;;;-144.47;53.07;53138.13;5062403;28;20028;-70
2022/06/27 04:24:49;;;;;;;19.67;10.73;;;;;;;-144.47;53.20;53092.44;5068210;28;20032;-71
2022/06/27 04:27:17;;;;;;;17.05;10.50;;;;;;;-144.47;53.08;53096.41;5068331;28;20124;-66
2022/06/27 04:29:43;;;;;;;27.15;11.88;;;;;;;-144.47;52.71;53138.13;5066936;28;20074;-67
2022/06/27 04:32:09;;;;;;;20.10;10.30;;;;;;;-144.47;52.69;53106.34;5066809;28;20032;-69
2022/06/27 04:34:35;;;;;;;18.15;10.20;;;;;;;-144.47;52.59;53084.50;5063168;28;20028;-69
2022/06/27 04:37:01;;;;;;;17.27;10.63;;;;;;;-144.47;52.42;53082.53;5067171;28;20339;-66
2022/06/27 04:39:26;;;;;;;21.90;11.15;;;;;;;-144.47;52.24;53088.47;5057211;28;20043;-69
2022/06/27 04:41:52;;;;;;;20.60;11.23;;;;;;;-144.47;52.13;53092.44;5060355;28;20036;-65
2022/06/27 04:44:18;;;;;;;16.83;10.40;;;;;;;-144.47;52.06;53082.53;5066030;28;20104;-67
2022/06/27 04:46:47;;;;;;;17.48;10.00;;;;;;;-144.47;52.20;53080.53;5066462;28;20108;-66
2022/06/27 04:49:14;;;;;;;25.30;10.88;;;;;;;-144.47;51.98;53098.41;5053499;28;20051;-65
2022/06/27 04:51:40;;;;;;;24.17;11.40;;;;;;;-144.47;52.07;53068.63;5054960;28;20039;-69
2022/06/27 04:54:07;;;;;;;14.73;10.40;;;;;;;-144.47;51.93;53114.31;5054939;28;20040;-67
2022/06/27 04:56:33;;;;;;;17.17;10.82;;;;;;;-144.47;52.00;53088.47;5061473;28;20496;-67
2022/06/27 04:58:58;;;;;;;20.42;11.68;;;;;;;-144.47;51.85;53082.53;5057115;28;20345;-70
2022/06/27 05:01:24;;;;;;;28.50;13.15;;;;;;;-144.47;51.93;53096.41;5058105;28;20032;-70
2022/06/27 05:03:49;;;;;;;30.73;11.75;;;;;;;-144.47;51.58;53078.53;5063384;28;20028;-70
2022/06/27 05:06:14;;;;;;;16.00;10.75;;;;;;;-144.47;51.55;53076.56;5060912;28;20028;-66
2022/06/27 05:08:40;;;;;;;36.40;12.48;;;;;;;-144.47;51.44;53100.41;5062593;28;20135;-69
2022/06/27 05:11:05;;;;;;;25.88;11.75;;;;;;;-144.47;51.17;53084.50;5056405;28;20085;-68
2022/06/27 05:13:31;;;;;;;24.70;11.50;;;;;;;-144.47;51.20;53086.50;5063998;28;20032;-67
2022/06/27 05:15:57;;;;;;;19.50;11.50;;;;;;;-144.47;50.85;53096.41;5068162;28;20038;-68
2022/06/27 05:18:23;;;;;;;25.90;11.68;;;;;;;-144.47;50.82;53090.47;5064756;28;20421;-70
2022/06/27 05:20:48;;;;;;;22.02;10.93;;;;;;;-144.47;50.77;53092.44;5048109;28;20017;-70
2022/06/27 05:23:13;;;;;;;23.55;11.32;;;;;;;-144.47;50.43;53086.50;5064304;28;20377;-67
2022/06/27 05:25:41;;;;;;;27.80;10.65;;;;;;;-144.47;50.24;53116.28;5065542;28;20354;-69
2022/06/27 05:28:07;;;;;;;31.93;14.47;;;;;;;-144.47;50.27;53096.41;5053482;28;20054;-71
2022/06/27 05:30:33;;;;;;;24.40;10.95;;;;;;;-144.47;50.00;53086.50;5067657;28;20100;-67
2022/06/27 05:32:59;;;;;;;20.77;11.00;;;;;;;-144.47;49.83;53086.50;5065496;28;20047;-69
2022/06/27 05:35:24;;;;;;;21.05;11.73;;;;;;;-144.47;49.62;53074.56;5066798;28;20457;-68
2022/06/27 05:37:50;;;;;;;15.48;9.25;;;;;;;-144.47;49.68;53084.50;5066879;28;20021;-68
2022/06/27 05:40:16;;;;;;;23.20;12.30;;;;;;;-144.47;49.43;53112.31;5066632;28;20032;-67
2022/06/27 05:42:41;;;;;;;21.33;10.70;;;;;;;-144.47;49.42;53060.66;5067588;28;20047;-65
2022/06/27 05:45:08;;;;;;;22.40;11.25;;;;;;;-144.47;49.49;53068.63;5064182;28;20020;-68
2022/06/27 05:47:35;;;;;;;20.60;10.82;;;;;;;-144.47;49.73;53080.53;5068065;28;20031;-66
2022/06/27 05:50:03;;;;;;;26.05;10.48;;;;;;;-144.47;49.48;53070.59;5067674;28;20025;-65
2022/06/27 05:52:29;;;;;;;22.23;11.50;;;;;;;-144.47;49.26;53082.53;5068212;28;20472;-68
2022/06/27 05:54:55;;;;;;;16.88;10.88;;;;;;;-144.47;49.17;53078.53;5065789;28;20529;-67
2022/06/27 05:57:22;;;;;;;24.17;11.45;;;;;;;-144.47;48.98;53068.63;5066611;28;20077;-68
2022/06/27 05:59:48;;;;;;;16.80;11.13;;;;;;;-144.47;48.86;53074.56;5068128;28;20422;-72
2022/06/27 06:02:14;;;;;;;25.65;12.05;;;;;;;-144.47;48.31;53030.88;5054053;28;20021;-68
2022/06/27 06:04:39;;;;;;;16.13;11.13;;;;;;;-144.47;47.89;53074.56;5051738;28;20218;-71
2022/06/27 06:07:05;;;;;;;18.98;10.50;;;;;;;-144.47;47.82;53050.75;5067510;28;20327;-69
2022/06/27 06:09:32;;;;;;;17.38;10.82;;;;;;;-144.47;47.44;53082.53;5067421;28;20016;-68
2022/06/27 06:11:59;;;;;;;16.45;9.93;;;;;;;-144.47;47.39;53070.59;5054109;28;20024;-70
2022/06/27 06:14:24;;;;;;;26.50;11.82;;;;;;;-144.47;47.16;53072.59;5071049;28;20446;-68
2022/06/27 06:16:50;;;;;;;25.65;10.90;;;;;;;-144.47;46.88;53078.53;5070223;28;20033;-68
2022/06/27 06:19:16;;;;;;;25.95;11.05;;;;;;;-144.47;46.80;53038.81;5071435;28;20050;-68
2022/06/27 06:21:42;;;;;;;20.35;10.15;;;;;;;-144.47;46.73;53042.78;5072418;28;20087;-67
2022/06/27 06:24:08;;;;;;;19.02;10.18;;;;;;;-144.47;46.35;53076.56;5071214;28;20394;-69
2022/06/27 06:26:34;;;;;;;17.83;10.20;;;;;;;-144.47;45.96;53048.75;5068950;28;20146;-67
2022/06/27 06:29:11;;;;;;;17.25;9.57;;;;;;;-144.47;45.33;53044.78;5058415;28;20343;-68
2022/06/27 06:31:38;;;;;;;20.80;10.50;;;;;;;-144.47;44.91;53034.84;5068937;28;20103;-69
2022/06/27 06:34:04;;;;;;;29.42;10.10;;;;;;;-144.47;44.37;53015.00;5065060;28;20107;-71
2022/06/27 06:36:30;;;;;;;17.02;9.45;;;;;;;-144.47;44.46;53022.94;5069644;28;20024;-71
2022/06/27 06:38:57;;;;;;;27.52;10.68;;;;;;;-144.47;44.14;53007.03;5071768;28;20027;-70
2022/06/27 06:41:23;;;;;;;22.93;10.00;;;;;;;-144.47;43.95;53018.97;5070396;28;20024;-67
2022/06/27 06:43:49;;;;;;;42.72;10.57;;;;;;;-144.47;43.61;53036.84;5063131;28;20033;-69
2022/06/27 06:46:14;;;;;;;28.48;10.57;;;;;;;-144.47;43.17;53022.94;5051889;28;20021;-70
2022/06/27 06:48:40;;;;;;;26.40;9.35;;;;;;;-144.47;42.97;53030.88;5070642;28;20478;-69
2022/06/27 06:51:07;;;;;;;19.75;9.40;;;;;;;-144.47;42.64;52995.13;5056363;28;20051;-66
2022/06/27 06:53:32;;;;;;;19.08;9.60;;;;;;;-144.47;42.91;53011.00;5059236;28;20021;-67
2022/06/27 06:55:58;;;;;;;32.03;9.95;;;;;;;-144.47;42.71;53009.03;5056786;28;20036;-69
2022/06/27 06:58:27;;;;;;;14.80;8.88;;;;;;;-144.47;42.70;53044.78;5058919;28;20028;-69
2022/06/27 07:00:54;;;;;;;23.02;9.23;;;;;;;-144.47;42.96;53022.94;5057425;28;20128;-66
2022/06/27 07:03:20;;;;;;;19.88;10.18;;;;;;;-144.47;42.97;53009.03;5061295;28;20067;-69
2022/06/27 07:05:46;;;;;;;21.80;9.20;;;;;;;-144.47;43.12;53036.84;5065398;28;20024;-66
2022/06/27 07:08:12;;;;;;;26.63;10.00;;;;;;;-144.47;43.02;53048.75;5070143;28;20163;-68
2022/06/27 07:10:38;;;;;;;18.95;9.77;;;;;;;-144.47;42.83;52993.13;5063066;28;20495;-70
2022/06/27 07:13:04;;;;;;;27.02;10.00;;;;;;;-144.47;42.75;53011.00;5071607;28;20028;-70
2022/06/27 07:15:30;;;;;;;25.45;10.00;;;;;;;-144.47;42.80;53024.91;5071074;28;20040;-68
2022/06/27 07:17:56;;;;;;;25.58;10.43;;;;;;;-144.47;42.45;52995.13;5069947;28;20052;-68
2022/06/27 07:20:22;;;;;;;24.75;9.60;;;;;;;-144.47;42.27;53024.91;5069487;28;20029;-67
2022/06/27 07:22:50;;;;;;;26.33;10.10;;;;;;;-144.47;41.85;52981.22;5070185;28;20028;-70
2022/06/27 07:25:17;;;;;;;24.40;9.40;;;;;;;-144.47;41.88;52967.31;5070036;28;20033;-66
2022/06/27 07:27:43;;;;;;;20.98;10.00;;;;;;;-144.47;41.59;53020.94;5072141;28;20024;-66
2022/06/27 07:30:11;;;;;;;23.25;9.93;;;;;;;-144.47;41.59;53042.78;5056784;28;20528;-69
2022/06/27 07:32:39;;;;;;;19.52;9.98;;;;;;;-144.47;41.28;53028.88;5062822;28;20100;-69
2022/06/27 07:35:09;;;;;;;19.73;10.77;;;;;;;-144.47;41.20;53009.03;5067200;28;20048;-69
2022/06/27 07:37:36;;;;;;;22.70;11.00;;;;;;;-144.47;41.05;52981.22;5069699;28;20524;-68
2022/06/27 07:40:03;;;;;;;16.42;10.43;;;;;;;-144.47;40.78;53013.00;5069590;28;20024;-70
2022/06/27 07:42:29;;;;;;;23.67;10.68;;;;;;;-144.47;41.07;53040.81;5059351;28;20029;-70
2022/06/27 07:44:56;;;;;;;17.92;9.90;;;;;;;-144.47;40.78;53015.00;5069512;28;20025;-66
2022/06/27 07:47:21;;;;;;;20.92;10.30;;;;;;;-144.47;40.77;52999.09;5068893;28;20032;-70
2022/06/27 07:49:47;;;;;;;19.48;11.13;;;;;;;-144.47;40.20;52993.13;5069536;28;20326;-67
2022/06/27 07:52:12;;;;;;;15.25;9.48;;;;;;;-144.47;39.99;53005.06;5069902;28;20339;-69
2022/06/27 07:54:38;;;;;;;16.42;9.20;;;;;;;-144.47;39.79;52999.09;5056397;28;20100;-70
2022/06/27 07:57:05;;;;;;;18.60;8.85;;;;;;;-144.47;39.29;53030.88;5058511;28;20069;-66
2022/06/27 07:59:31;;;;;;;19.73;9.87;;;;;;;-144.47;38.98;52995.13;5065583;28;20070;-70
2022/06/27 08:01:56;;;;;;;16.15;8.57;;;;;;;-144.47;38.63;52977.25;5069557;28;20029;-68
2022/06/27 08:04:22;;;;;;;25.08;9.00;;;;;;;-144.47;38.15;52955.41;5066632;28;20394;-71
2022/06/27 08:06:49;;;;;;;43.95;8.70;;;;;;;-144.47;38.49;52981.22;5069631;28;20403;-68
2022/06/27 08:09:15;;;;;;;16.63;8.80;;;;;;;-144.47;38.09;52997.09;5069910;28;20028;-67
2022/06/27 08:11:43;;;;;;;15.43;7.95;;;;;;;-144.47;38.31;52985.19;5058805;28;20031;-70
2022/06/27 08:14:11;;;;;;;17.50;8.48;;;;;;;-144.47;38.34;52981.22;5064984;28;20564;-68
2022/06/27 08:16:40;;;;;;;;;;;;;;;-144.47;38.09;53018.97;5069006;28;20040;-66
2022/06/27 08:19:07;;;;;;;17.23;8.43;;;;;;;-144.47;38.03;52993.13;5064364;28;19908;-67
2022/06/27 08:21:34;;;;;;;14.60;8.60;;;;;;;-144.47;38.02;52955.41;5061198;28;20235;-69
2022/06/27 08:24:03;;;;;;;18.80;9.70;;;;;;;-144.47;38.27;52997.09;5067330;28;20036;-69
2022/06/27 08:26:31;;;;;;;13.57;7.90;;;;;;;-144.47;38.00;52943.47;5069001;28;20040;-67
2022/06/27 08:28:58;;;;;;;14.02;7.88;;;;;;;-144.47;37.50;52983.22;5068704;28;20021;-65
2022/06/27 08:31:25;;;;;;;17.13;6.65;;;;;;;-144.47;36.99;52959.38;5055940;28;20402;-69
2022/06/27 08:33:55;;;;;;;16.35;7.07;;;;;;;-144.47;36.30;52969.31;5068063;28;20565;-66
2022/06/27 08:36:23;;;;;;;15.35;7.22;;;;;;;-144.47;36.13;52945.47;5068125;28;20025;-69
2022/06/27 08:38:50;;;;;;;11.98;6.90;;;;;;;-144.47;36.04;52965.34;5056091;28;20111;-65
2022/06/27 08:41:20;;;;;;;13.05;7.30;;;;;;;-144.47;35.85;52971.28;5067380;28;20025;-67
2022/06/27 08:43:48;;;;;;;18.35;7.38;;;;;;;-144.47;35.70;52955.41;5056953;28;20050;-68
2022/06/27 08:46:15;;;;;;;;;;;;;;;-144.47;35.42;52925.59;5067082;28;20025;-67
2022/06/27 08:48:41;;;;;;;16.05;7.25;;;;;;;-144.47;35.32;52935.53;5066868;28;19914;-66
2022/06/27 08:51:07;;;;;;;15.35;8.23;;;;;;;-144.47;35.28;52995.13;5065848;28;20051;-66
2022/06/27 08:53:34;;;;;;;13.55;7.90;;;;;;;-144.47;35.22;52947.47;5057278;28;20024;-70
2022/06/27 08:56:01;;;;;;;16.55;8.10;;;;;;;-144.47;35.09;52951.44;5068791;28;20025;-66
2022/06/27 08:58:28;;;;;;;18.30;8.43;;;;;;;-144.47;35.46;52929.59;5068718;28;20028;-66
2022/06/27 09:00:54;;;;;;;14.63;7.53;;;;;;;-144.47;35.19;52951.44;5055048;28;20438;-71
2022/06/27 09:03:21;;;;;;;13.20;7.18;;;;;;;-144.47;34.37;52947.47;5068403;28;20032;-66
2022/06/27 09:05:59;;;;;;;12.65;7.97;;;;;;;-144.47;34.95;52911.69;5067489;28;20032;-66
2022/06/27 09:08:28;;;;;;;20.83;7.93;;;;;;;-144.47;35.00;52959.38;5067313;28;20032;-69
2022/06/27 09:10:56;;;;;;;29.45;8.30;;;;;;;-144.47;35.09;52953.41;5067859;28;20409;-70
2022/06/27 09:13:24;;;;;;;30.15;9.30;;;;;;;-144.47;35.46;52953.41;5067484;28;20108;-68
2022/06/27 09:15:52;;;;;;;23.67;9.75;;;;;;;-144.47;36.01;52959.38;5068277;28;20640;-64
2022/06/27 09:18:33;;;;;;;34.58;8.10;;;;;;;-144.47;35.58;52993.13;5056911;28;20036;-69
2022/06/27 09:21:03;;;;;;;41.38;9.15;;;;;;;-144.47;35.61;52931.56;5067580;28;20247;-69
2022/06/27 09:23:28;;;;;;;13.73;7.63;;;;;;;-144.47;35.32;52963.34;5066423;28;20476;-70
2022/06/27 09:26:40;;;;;;;11.15;7.63;;;;;;;-144.47;35.25;52981.22;5067869;28;20052;-67
2022/06/27 09:29:09;;;;;;;23.77;8.20;;;;;;;-144.47;35.62;52971.28;5004879;28;20041;-69
2022/06/27 09:31:42;;;;;;;20.58;7.13;;;;;;;-144.47;35.05;52949.44;5004538;28;20132;-67
2022/06/27 09:34:16;;;;;;;21.83;8.27;;;;;;;-144.47;35.51;52959.38;5004932;28;20455;-67
2022/06/27 09:36:43;;;;;;;19.30;8.48;;;;;;;-144.47;35.70;52955.41;5004379;28;20367;-70
2022/06/27 09:39:17;;;;;;;27.58;9.23;;;;;;;-144.47;35.67;52963.34;5005391;28;20145;-70
2022/06/27 09:41:45;;;;;;;24.75;11.15;;;;;;;-144.47;35.58;52979.22;5004942;28;20060;-65
2022/06/27 09:44:15;;;;;;;25.40;9.68;;;;;;;-144.47;35.25;52971.28;5004743;28;20034;-69
2022/06/27 09:46:50;;;;;;;19.38;8.32;;;;;;;-144.47;35.13;52935.53;5003951;28;20037;-70
2022/06/27 09:49:15;;;;;;;17.27;8.52;;;;;;;-144.47;34.82;52953.41;5003656;28;20125;-67
2022/06/27 09:51:42;;;;;;;17.70;8.30;;;;;;;-144.47;34.56;52977.25;5003554;28;20164;-70
2022/06/27 09:54:11;;;;;;;20.58;9.02;;;;;;;-144.47;34.73;52967.31;5003919;28;20121;-69
2022/06/27 09:56:41;;;;;;;19.27;8.02;;;;;;;-144.47;34.69;52927.59;5003573;28;20064;-68
2022/06/27 09:59:09;;;;;;;18.95;8.13;;;;;;;-144.47;34.92;52963.34;5015919;28;20070;-69
2022/06/27 10:01:35;;;;;;;30.02;8.38;;;;;;;-144.47;34.70;52949.44;5054288;28;20146;-70
2022/06/27 10:04:24;;;;;;;16.60;7.57;;;;;;;-144.47;33.48;52961.34;5075923;22;20525;-89
2022/06/27 10:09:48;;;;;;;25.00;8.40;;;;;;;-144.47;33.45;52969.31;5049473;28;20061;-89
2022/06/27 10:12:51;;;;;;;;;;;;;;;;;;;;;
2022/06/27 10:15:38;;;;;;;22.38;6.90;;;;;;;-144.47;32.84;52961.34;5057745;28;20103;-90
2022/06/27 10:18:33;;;;;;;;;;;;;;;;;;;;;
2022/06/27 10:21:26;;;;;;;14.32;6.78;;;;;;;-144.47;32.93;52949.44;5033823;28;20573;-88
2022/06/27 10:24:29;;;;;;;13.50;6.28;;;;;;;-144.47;32.31;52947.47;5056139;28;20043;-89
2022/06/27 10:27:43;;;;;;;10.98;5.90;;;;;;;-144.47;32.13;52967.31;5040386;28;20027;-90
2022/06/27 10:30:47;;;;;;;15.07;6.55;;;;;;;-144.47;32.72;52949.44;5037620;28;20028;-90
2022/06/27 10:33:40;;;;;;;18.98;7.00;;;;;;;-144.47;32.88;52955.41;5036107;28;20040;-89
2022/06/27 10:36:51;;;;;;;20.67;6.50;;;;;;;-144.47;32.52;52929.59;5037441;28;20057;-88
2022/06/27 10:39:19;;;;;;;13.82;6.65;;;;;;;-144.47;32.84;52957.38;5057985;28;20032;-89
2022/06/27 10:42:40;;;;;;;17.85;7.40;;;;;;;-144.47;32.49;52971.28;5057062;28;20017;-89
2022/06/27 10:45:29;;;;;;;13.70;7.05;;;;;;;-144.47;32.37;52939.50;5012958;28;20044;-92
2022/06/27 10:51:26;;;;;;;20.75;7.57;;;;;;;-144.47;32.30;52971.28;5010760;28;20160;-89
2022/06/27 10:54:13;;;;;;;15.35;6.95;;;;;;;-144.47;32.08;52959.38;5047605;28;20052;-89
2022/06/27 10:57:32;;;;;;;20.08;6.63;;;;;;;-144.47;31.88;52923.63;5044989;28;20454;-90
2022/06/27 11:00:36;;;;;;;14.90;7.00;;;;;;;-144.47;31.75;52905.75;5035455;28;20109;-91
2022/06/27 11:03:08;;;;;;;13.20;6.95;;;;;;;-144.47;31.38;52953.41;5037251;28;20090;-89
2022/06/27 11:09:42;;;;;;;17.10;7.10;;;;;;;-144.47;31.18;52915.69;5002561;28;20121;-91
2022/06/27 11:12:20;;;;;;;19.27;6.63;;;;;;;-144.47;31.03;52935.53;4989393;28;20022;-88
2022/06/27 11:14:54;;;;;;;18.88;5.88;;;;;;;-144.47;31.21;52923.63;4990698;28;20067;-89
2022/06/27 11:17:37;;;;;;;38.05;8.68;;;;;;;-144.47;31.56;52923.63;5011694;28;20077;-89
2022/06/27 11:20:30;;;;;;;17.25;7.00;;;;;;;-144.47;31.01;52915.69;4987214;28;20069;-89
2022/06/27 11:23:11;;;;;;;14.02;6.75;;;;;;;-144.47;31.11;52899.78;4987180;28;20036;-88
2022/06/27 11:34:02;;;;;;;;;;;;;;;;;;;;;
2022/06/27 11:36:56;;;;;;;18.75;7.30;;;;;;;-144.47;30.68;52907.72;4872035;29;20609;-91
2022/06/27 11:43:00;;;;;;;14.95;7.00;;;;;;;-144.47;30.31;52899.78;4850029;29;20244;-89
2022/06/27 11:46:02;;;;;;;19.95;7.18;;;;;;;-144.47;29.67;52927.59;4875178;29;20033;-89
2022/06/27 11:48:55;;;;;;;16.45;7.28;;;;;;;-144.47;30.02;52901.78;4887074;29;20045;-89